createdAt,value
2019-04-21T00:00:37.397Z,17.97
2019-04-21T00:03:15.262Z,19.97
2019-04-21T00:05:58.718Z,19.03
2019-04-21T00:13:28.095Z,17.17
2019-04-21T00:15:53.758Z,19.70
2019-04-21T00:18:58.022Z,18.73
2019-04-21T00:21:29.190Z,23.73
2019-04-21T00:24:28.801Z,18.37
2019-04-21T00:27:18.807Z,18.10
2019-04-21T00:29:40.995Z,22.17
2019-04-21T00:32:01.707Z,21.93
2019-04-21T00:34:19.604Z,20.97
2019-04-21T00:36:59.937Z,21.93
2019-04-21T00:39:58.819Z,19.57
2019-04-21T00:42:16.771Z,23.30
2019-04-21T00:44:36.670Z,21.73
2019-04-21T00:47:15.701Z,20.63
2019-04-21T00:49:56.858Z,22.07
2019-04-21T00:52:53.878Z,24.10
2019-04-21T01:00:27.798Z,19.23
2019-04-21T01:03:04.970Z,21.47
2019-04-21T01:05:38.547Z,23.23
2019-04-21T01:08:04.654Z,21.03
2019-04-21T01:10:27.117Z,25.07
2019-04-21T01:13:11.342Z,22.50
2019-04-21T01:15:43.647Z,21.87
2019-04-21T01:18:11.023Z,23.07
2019-04-21T01:20:21.695Z,21.97
2019-04-21T01:22:51.825Z,21.07
2019-04-21T01:25:30.183Z,20.13
2019-04-21T01:28:09.873Z,21.53
2019-04-21T01:30:46.069Z,22.20
2019-04-21T01:33:21.353Z,27.20
2019-04-21T01:35:47.947Z,21.70
2019-04-21T01:38:24.467Z,23.57
2019-04-21T01:40:55.493Z,24.77
2019-04-21T01:43:24.679Z,24.10
2019-04-21T01:45:56.699Z,24.50
2019-04-21T01:48:28.985Z,24.73
2019-04-21T01:50:55.764Z,22.47
2019-04-21T01:53:48.606Z,23.17
2019-04-21T01:56:43.189Z,21.57
2019-04-21T01:58:59.254Z,21.53
2019-04-21T02:01:42.450Z,21.87
2019-04-21T02:04:22.747Z,23.23
2019-04-21T02:06:44.472Z,22.77
2019-04-21T02:09:17.291Z,23.17
2019-04-21T02:11:54.820Z,24.13
2019-04-21T02:14:45.900Z,22.93
2019-04-21T02:16:52.111Z,21.60
2019-04-21T02:19:26.655Z,21.97
2019-04-21T02:21:52.933Z,23.43
2019-04-21T02:24:35.170Z,23.23
2019-04-21T02:27:07.634Z,23.90
2019-04-21T02:29:33.139Z,22.23
2019-04-21T02:32:19.356Z,24.23
2019-04-21T02:34:52.286Z,24.87
2019-04-21T02:39:58.876Z,24.13
2019-04-21T02:42:18.210Z,25.77
2019-04-21T02:44:52.205Z,26.27
2019-04-21T02:47:38.925Z,26.10
2019-04-21T02:52:39.278Z,24.87
2019-04-21T02:55:03.854Z,25.07
2019-04-21T02:57:43.513Z,23.70
2019-04-21T03:02:55.373Z,23.90
2019-04-21T03:05:54.363Z,23.53
2019-04-21T03:08:32.151Z,24.77
2019-04-21T03:11:04.878Z,24.67
2019-04-21T03:13:31.407Z,21.43
2019-04-21T03:18:33.789Z,27.33
2019-04-21T03:21:07.166Z,24.80
2019-04-21T03:23:38.853Z,23.10
2019-04-21T03:28:37.394Z,26.87
2019-04-21T03:34:15.794Z,23.83
2019-04-21T03:36:40.069Z,22.37
2019-04-21T03:38:46.903Z,25.37
2019-04-21T03:43:54.339Z,26.50
2019-04-21T03:46:28.608Z,26.83
2019-04-21T03:48:54.031Z,22.67
2019-04-21T03:53:55.842Z,24.70
2019-04-21T03:56:52.379Z,24.07
2019-04-21T04:01:46.928Z,23.70
2019-04-21T04:04:35.528Z,25.10
2019-04-21T04:07:33.808Z,21.93
2019-04-21T04:10:02.478Z,24.00
2019-04-21T04:15:07.193Z,26.23
2019-04-21T04:17:36.056Z,24.80
2019-04-21T04:20:06.045Z,25.17
2019-04-21T04:22:56.232Z,24.23
2019-04-21T04:25:11.482Z,23.20
2019-04-21T04:30:25.422Z,22.73
2019-04-21T04:32:42.474Z,22.20
2019-04-21T04:35:25.563Z,25.30
2019-04-21T04:40:49.233Z,23.17
2019-04-21T04:45:40.935Z,22.23
2019-04-21T04:58:18.767Z,24.07
2019-04-21T05:03:26.366Z,24.57
2019-04-21T05:06:44.018Z,23.73
2019-04-21T05:14:10.265Z,20.30
2019-04-21T05:23:55.609Z,22.27
2019-04-21T05:26:26.850Z,21.77
2019-04-21T05:28:55.541Z,24.13
2019-04-21T05:32:00.440Z,22.20
2019-04-21T05:34:31.511Z,21.17
2019-04-21T05:37:28.934Z,24.30
2019-04-21T05:40:00.694Z,22.13
2019-04-21T05:42:36.619Z,22.83
2019-04-21T05:45:18.519Z,20.23
2019-04-21T05:48:15.929Z,23.73
2019-04-21T05:50:34.979Z,22.17
2019-04-21T05:53:00.198Z,24.37
2019-04-21T05:55:43.523Z,24.77
2019-04-21T05:58:08.670Z,24.43
2019-04-21T06:01:09.397Z,22.27
2019-04-21T06:03:27.867Z,23.03
2019-04-21T06:11:03.083Z,24.73
2019-04-21T06:13:35.071Z,24.33
2019-04-21T06:16:03.554Z,23.60
2019-04-21T06:18:43.318Z,23.07
2019-04-21T06:23:53.901Z,21.27
2019-04-21T06:26:26.942Z,24.87
2019-04-21T06:28:47.243Z,23.77
2019-04-21T06:31:47.059Z,22.97
2019-04-21T06:33:48.810Z,23.53
2019-04-21T06:36:41.424Z,21.37
2019-04-21T06:44:09.402Z,22.27
2019-04-21T06:46:35.474Z,23.70
2019-04-21T06:49:07.017Z,23.47
2019-04-21T06:51:36.161Z,21.57
2019-04-21T06:54:29.114Z,21.57
2019-04-21T06:56:47.286Z,27.27
2019-04-21T06:59:09.477Z,21.10
2019-04-21T07:01:55.234Z,20.13
2019-04-21T07:04:24.260Z,23.23
2019-04-21T07:11:55.149Z,21.27
2019-04-21T07:17:06.381Z,24.70
2019-04-21T07:19:34.944Z,23.23
2019-04-21T07:22:07.423Z,22.97
2019-04-21T07:24:37.054Z,23.07
2019-04-21T07:27:08.863Z,22.77
2019-04-21T07:29:42.895Z,22.70
2019-04-21T07:32:09.420Z,23.27
2019-04-21T07:34:39.719Z,24.97
2019-04-21T07:37:11.943Z,21.93
2019-04-21T07:39:40.263Z,23.90
2019-04-21T07:42:13.459Z,25.33
2019-04-21T07:44:40.838Z,21.93
2019-04-21T07:47:15.701Z,25.00
2019-04-21T07:50:06.823Z,22.07
2019-04-21T07:53:15.707Z,23.57
2019-04-21T07:58:15.055Z,24.13
2019-04-21T08:00:51.330Z,22.20
2019-04-21T08:03:25.056Z,22.23
2019-04-21T08:05:53.020Z,20.97
2019-04-21T08:08:20.927Z,20.70
2019-04-21T08:10:52.331Z,22.87
2019-04-21T08:13:34.170Z,22.30
2019-04-21T08:15:57.995Z,19.93
2019-04-21T08:18:37.769Z,22.63
2019-04-21T08:21:00.318Z,20.97
2019-04-21T08:23:32.866Z,22.97
2019-04-21T08:26:04.790Z,23.23
2019-04-21T08:28:42.654Z,22.00
2019-04-21T08:31:10.254Z,24.80
2019-04-21T08:36:19.038Z,23.57
2019-04-21T08:38:45.870Z,27.97
2019-04-21T08:41:12.268Z,22.37
2019-04-21T08:43:44.614Z,21.80
2019-04-21T08:46:18.977Z,23.60
2019-04-21T08:48:55.328Z,21.75
2019-04-21T08:51:27.033Z,23.15
2019-04-21T08:54:05.504Z,26.73
2019-04-21T08:56:37.208Z,22.73
2019-04-21T08:59:29.477Z,23.85
2019-04-21T09:02:18.025Z,22.73
2019-04-21T09:04:49.097Z,21.42
2019-04-21T09:07:23.891Z,22.58
2019-04-21T09:09:52.194Z,22.93
2019-04-21T09:12:22.603Z,22.98
2019-04-21T09:14:56.766Z,22.42
2019-04-21T09:17:20.643Z,21.30
2019-04-21T09:20:01.302Z,21.57
2019-04-21T09:22:32.443Z,23.05
2019-04-21T09:24:55.950Z,23.15
2019-04-21T09:27:30.819Z,22.22
2019-04-21T09:29:52.376Z,22.05
2019-04-21T09:32:23.180Z,22.50
2019-04-21T09:34:50.693Z,25.48
2019-04-21T09:37:33.034Z,24.43
2019-04-21T09:39:55.188Z,23.30
2019-04-21T09:42:33.346Z,27.45
2019-04-21T09:45:00.490Z,22.93
2019-04-21T09:47:35.077Z,22.48
2019-04-21T09:50:02.795Z,22.60
2019-04-21T09:52:41.773Z,24.12
2019-04-21T09:55:13.481Z,23.95
2019-04-21T09:57:44.849Z,21.90
2019-04-21T10:00:15.143Z,22.37
2019-04-21T10:02:51.564Z,23.65
2019-04-21T10:05:14.438Z,23.50
2019-04-21T10:07:44.519Z,21.65
2019-04-21T10:10:14.901Z,25.50
2019-04-21T10:12:45.472Z,27.15
2019-04-21T10:15:16.541Z,25.80
2019-04-21T10:17:54.057Z,23.27
2019-04-21T10:20:24.548Z,21.40
2019-04-21T10:22:55.258Z,26.85
2019-04-21T10:25:25.443Z,23.32
2019-04-21T10:27:57.063Z,23.83
2019-04-21T10:30:27.170Z,22.35
2019-04-21T10:32:58.420Z,25.17
2019-04-21T10:35:28.970Z,25.08
2019-04-21T10:38:10.994Z,24.60
2019-04-21T10:40:33.583Z,25.88
2019-04-21T10:43:03.930Z,21.45
2019-04-21T10:45:34.917Z,22.27
2019-04-21T10:48:05.185Z,24.43
2019-04-21T10:50:35.232Z,21.07
2019-04-21T10:53:09.250Z,23.25
2019-04-21T10:55:54.307Z,22.10
2019-04-21T10:58:24.599Z,24.15
2019-04-21T11:01:04.279Z,20.37
2019-04-21T11:03:53.174Z,22.13
2019-04-21T11:06:24.514Z,23.22
2019-04-21T11:08:57.509Z,21.55
2019-04-21T11:11:27.965Z,23.80
2019-04-21T11:13:58.847Z,21.60
2019-04-21T11:16:29.183Z,20.43
2019-04-21T11:18:59.995Z,19.73
2019-04-21T11:21:31.134Z,19.65
2019-04-21T11:24:02.373Z,17.52
2019-04-21T11:26:33.711Z,20.12
2019-04-21T11:29:05.211Z,19.87
2019-04-21T11:31:36.797Z,19.73
2019-04-21T11:34:07.309Z,24.35
2019-04-21T11:36:37.575Z,19.37
2019-04-21T11:39:35.523Z,17.32
2019-04-21T11:41:57.574Z,18.07
2019-04-21T11:44:28.949Z,17.55
2019-04-21T11:47:00.542Z,18.73
2019-04-21T11:49:32.529Z,18.32
2019-04-21T11:52:02.932Z,18.48
2019-04-21T11:54:32.969Z,16.20
2019-04-21T11:57:11.831Z,13.75
2019-04-21T11:59:35.648Z,13.43
2019-04-21T12:02:05.750Z,15.23
2019-04-21T12:04:35.827Z,15.88
2019-04-21T12:07:07.089Z,17.67
2019-04-21T12:09:37.651Z,17.75
2019-04-21T12:12:09.602Z,15.60
2019-04-21T12:14:39.837Z,15.72
2019-04-21T12:17:10.069Z,15.38
2019-04-21T12:19:40.883Z,16.30
2019-04-21T12:22:21.081Z,14.85
2019-04-21T12:24:43.165Z,17.05
2019-04-21T12:27:14.139Z,14.40
2019-04-21T12:29:44.213Z,15.72
2019-04-21T12:32:42.169Z,16.62
2019-04-21T12:35:13.629Z,16.80
2019-04-21T12:37:44.788Z,15.03
2019-04-21T12:40:14.930Z,12.93
2019-04-21T12:42:45.578Z,15.00
2019-04-21T12:45:15.621Z,15.38
2019-04-21T12:47:48.397Z,15.72
2019-04-21T12:50:17.407Z,12.78
2019-04-21T12:52:47.547Z,12.18
2019-04-21T12:55:17.796Z,12.07
2019-04-21T12:57:47.854Z,13.13
2019-04-21T13:00:20.778Z,13.05
2019-04-21T13:02:51.938Z,14.65
2019-04-21T13:05:22.070Z,10.32
2019-04-21T13:07:53.258Z,15.23
2019-04-21T13:10:24.297Z,16.10
2019-04-21T13:12:54.453Z,13.58
2019-04-21T13:15:25.407Z,15.10
2019-04-21T13:17:56.308Z,12.07
2019-04-21T13:20:27.445Z,14.40
2019-04-21T13:22:57.878Z,15.43
2019-04-21T13:25:27.971Z,13.60
2019-04-21T13:27:58.674Z,18.00
2019-04-21T13:30:28.726Z,17.10
2019-04-21T13:32:58.979Z,14.25
2019-04-21T13:35:29.063Z,17.20
2019-04-21T13:38:00.457Z,19.32
2019-04-21T13:41:17.801Z,17.15
2019-04-21T13:43:33.163Z,21.97
2019-04-21T13:46:03.834Z,16.97
2019-04-21T13:48:34.754Z,19.32
2019-04-21T13:51:05.062Z,18.77
2019-04-21T13:53:36.329Z,17.82
2019-04-21T13:56:06.980Z,15.95
2019-04-21T13:58:38.024Z,17.73
2019-04-21T14:01:09.532Z,16.80
2019-04-21T14:03:39.770Z,18.37
2019-04-21T14:06:09.857Z,16.27
2019-04-21T14:08:49.149Z,19.20
2019-04-21T14:11:19.924Z,13.98
2019-04-21T14:13:50.402Z,18.55
2019-04-21T14:16:20.504Z,15.90
2019-04-21T14:18:51.843Z,16.77
2019-04-21T14:21:23.237Z,18.45
2019-04-21T14:23:54.569Z,17.40
2019-04-21T14:26:25.031Z,20.08
2019-04-21T14:28:55.073Z,16.55
2019-04-21T14:31:26.373Z,20.80
2019-04-21T14:33:58.298Z,16.32
2019-04-21T14:36:30.622Z,16.50
2019-04-21T14:39:02.853Z,16.27
2019-04-21T14:41:33.633Z,18.50
2019-04-21T14:44:04.758Z,17.55
2019-04-21T14:46:44.909Z,19.62
2019-04-21T14:49:23.556Z,17.90
2019-04-21T14:52:01.155Z,15.83
2019-04-21T14:54:50.976Z,20.65
2019-04-21T14:57:21.273Z,16.10
2019-04-21T14:59:51.371Z,17.12
2019-04-21T15:02:22.295Z,17.87
2019-04-21T15:04:53.577Z,17.42
2019-04-21T15:07:23.698Z,18.02
2019-04-21T15:10:04.639Z,15.13
2019-04-21T15:12:27.851Z,17.35
2019-04-21T15:14:58.200Z,17.75
2019-04-21T15:17:29.389Z,21.82
2019-04-21T15:20:04.638Z,16.95
2019-04-21T15:22:32.320Z,16.30
2019-04-21T15:25:02.898Z,17.80
2019-04-21T15:27:33.149Z,14.98
2019-04-21T15:30:04.721Z,19.70
2019-04-21T15:32:34.869Z,13.30
2019-04-21T15:35:06.829Z,19.32
2019-04-21T15:37:37.926Z,19.80
2019-04-21T15:40:18.156Z,21.07
2019-04-21T15:42:39.688Z,21.55
2019-04-21T15:45:10.533Z,21.90
2019-04-21T15:47:42.064Z,19.52
2019-04-21T15:50:16.352Z,20.48
2019-04-21T15:52:45.520Z,22.45
2019-04-21T15:55:34.935Z,19.35
2019-04-21T15:58:24.790Z,18.75
2019-04-21T16:01:02.720Z,21.57
2019-04-21T16:03:32.798Z,20.68
2019-04-21T16:06:03.321Z,19.48
2019-04-21T16:08:33.475Z,20.65
2019-04-21T16:11:06.008Z,17.52
2019-04-21T16:13:35.280Z,17.65
2019-04-21T16:16:06.377Z,22.10
2019-04-21T16:18:36.454Z,17.90
2019-04-21T16:21:08.165Z,23.98
2019-04-21T16:23:38.394Z,21.60
2019-04-21T16:26:08.806Z,21.37
2019-04-21T16:28:39.866Z,19.05
2019-04-21T16:31:10.156Z,21.62
2019-04-21T16:33:41.053Z,18.02
2019-04-21T16:36:13.647Z,20.62
2019-04-21T16:38:44.153Z,21.87
2019-04-21T16:41:14.280Z,24.00
2019-04-21T16:43:45.015Z,17.17
2019-04-21T16:46:15.808Z,18.87
2019-04-21T16:48:46.034Z,21.40
2019-04-21T16:51:18.261Z,19.80
2019-04-21T16:53:59.775Z,20.48
2019-04-21T16:56:34.302Z,20.65
2019-04-21T16:59:10.566Z,19.57
2019-04-21T17:01:40.747Z,22.87
2019-04-21T17:04:10.871Z,20.80
2019-04-21T17:06:40.968Z,20.62
2019-04-21T17:09:12.555Z,18.80
2019-04-21T17:11:44.678Z,20.30
2019-04-21T17:14:31.188Z,19.62
2019-04-21T17:17:08.696Z,21.45
2019-04-21T17:19:24.157Z,22.00
2019-04-21T17:21:51.973Z,22.05
2019-04-21T17:24:22.251Z,21.25
2019-04-21T17:26:53.265Z,21.07
2019-04-21T17:29:24.862Z,18.77
2019-04-21T17:31:55.307Z,19.57
2019-04-21T17:34:29.728Z,21.15
2019-04-21T17:36:57.294Z,20.23
2019-04-21T17:39:27.321Z,22.70
2019-04-21T17:42:11.711Z,23.05
2019-04-21T17:44:29.804Z,23.92
2019-04-21T17:47:05.251Z,22.50
2019-04-21T17:49:32.944Z,22.27
2019-04-21T17:52:37.928Z,25.88
2019-04-21T17:55:25.394Z,23.57
2019-04-21T17:58:05.138Z,28.87
2019-04-21T18:01:05.490Z,23.18
2019-04-21T18:03:25.302Z,23.18
2019-04-21T18:05:48.510Z,26.85
2019-04-21T18:08:23.462Z,22.62
2019-04-21T18:10:47.624Z,23.65
2019-04-21T18:13:11.595Z,24.30
2019-04-21T18:15:51.239Z,25.10
2019-04-21T18:18:08.596Z,25.62
2019-04-21T18:20:41.791Z,26.85
2019-04-21T18:23:45.032Z,22.15
2019-04-21T18:26:19.190Z,23.30
2019-04-21T18:28:38.773Z,23.83
2019-04-21T18:31:12.246Z,21.48
2019-04-21T18:33:47.851Z,23.27
2019-04-21T18:36:34.847Z,22.73
2019-04-21T18:39:33.619Z,20.05
2019-04-21T18:42:17.590Z,20.72
2019-04-21T18:45:28.453Z,23.38
2019-04-21T18:47:51.093Z,21.10
2019-04-21T18:50:39.150Z,20.88
2019-04-21T18:53:16.963Z,21.15
2019-04-21T18:55:45.154Z,23.18
2019-04-21T18:58:13.721Z,23.05
2019-04-21T19:00:44.772Z,22.58
2019-04-21T19:03:20.841Z,21.30
2019-04-21T19:05:53.815Z,23.22
2019-04-21T19:08:40.549Z,21.93
2019-04-21T19:11:10.387Z,19.80
2019-04-21T19:14:17.665Z,17.10
2019-04-21T19:16:33.089Z,19.25
2019-04-21T19:19:33.031Z,18.48
2019-04-21T19:21:28.289Z,19.60
2019-04-21T19:26:46.786Z,21.30
2019-04-21T19:29:19.643Z,19.50
2019-04-21T19:31:44.453Z,20.65
2019-04-21T19:34:06.170Z,20.48
2019-04-21T19:36:29.146Z,24.70
2019-04-21T19:39:06.786Z,21.93
2019-04-21T19:41:43.213Z,25.40
2019-04-21T19:44:17.420Z,22.30
2019-04-21T19:46:49.216Z,25.67
2019-04-21T19:49:30.442Z,21.90
2019-04-21T19:51:51.453Z,20.62
2019-04-21T19:54:18.689Z,25.23
2019-04-21T19:56:40.898Z,25.77
2019-04-21T19:59:18.425Z,24.03
2019-04-21T20:01:46.235Z,23.63
2019-04-21T20:04:14.739Z,24.03
2019-04-21T20:06:57.669Z,22.30
2019-04-21T20:09:32.485Z,21.30
2019-04-21T20:12:03.757Z,20.73
2019-04-21T20:14:47.398Z,21.57
2019-04-21T20:17:04.627Z,21.27
2019-04-21T20:19:24.829Z,21.07
2019-04-21T20:21:54.967Z,21.63
2019-04-21T20:24:28.815Z,21.50
2019-04-21T20:27:03.494Z,19.90
2019-04-21T20:29:49.761Z,19.97
2019-04-21T20:32:26.682Z,22.67
2019-04-21T20:34:56.256Z,19.80
2019-04-21T20:37:21.314Z,22.87
2019-04-21T20:39:45.862Z,22.07
2019-04-21T20:42:21.169Z,21.63
2019-04-21T20:45:16.111Z,20.23
2019-04-21T20:47:22.768Z,21.73
2019-04-21T20:52:38.353Z,24.77
2019-04-21T20:55:02.153Z,25.23
2019-04-21T20:57:35.297Z,23.47
2019-04-21T21:00:05.751Z,25.30
2019-04-21T21:02:46.917Z,23.17
2019-04-21T21:05:03.010Z,29.33
2019-04-21T21:07:45.951Z,25.87
2019-04-21T21:10:16.692Z,25.00
2019-04-21T21:13:03.046Z,27.67
2019-04-21T21:15:10.017Z,30.53
2019-04-21T21:18:01.608Z,26.87
2019-04-21T21:20:24.649Z,27.50
2019-04-21T21:22:50.865Z,27.07
2019-04-21T21:25:36.608Z,28.70
2019-04-21T21:27:51.791Z,26.40
2019-04-21T21:30:26.542Z,25.13
2019-04-21T21:33:10.526Z,25.40
2019-04-21T21:35:32.465Z,24.07
2019-04-21T21:38:13.457Z,23.60
2019-04-21T21:40:36.673Z,27.10
2019-04-21T21:42:55.356Z,25.77
2019-04-21T21:45:30.391Z,22.43
2019-04-21T21:48:16.065Z,23.83
2019-04-21T21:50:42.107Z,21.10
2019-04-21T21:53:08.410Z,24.03
2019-04-21T21:55:35.466Z,19.93
2019-04-21T21:58:06.388Z,19.13
2019-04-21T22:00:43.137Z,23.40
2019-04-21T22:03:19.745Z,23.27
2019-04-21T22:05:50.382Z,24.43
2019-04-21T22:08:16.369Z,26.47
2019-04-21T22:10:47.383Z,20.50
2019-04-21T22:13:20.366Z,22.03
2019-04-21T22:15:56.467Z,21.93
2019-04-21T22:18:40.958Z,23.53
2019-04-21T22:21:09.298Z,24.57
2019-04-21T22:23:38.157Z,20.80
2019-04-21T22:25:57.578Z,20.73
2019-04-21T22:28:29.626Z,19.97
2019-04-21T22:31:01.060Z,23.20
2019-04-21T22:33:38.891Z,19.70
2019-04-21T22:36:18.518Z,18.50
2019-04-21T22:38:47.725Z,18.43
2019-04-21T22:41:20.408Z,19.00
2019-04-21T22:43:44.423Z,18.13
2019-04-21T22:46:15.356Z,20.63
2019-04-21T22:48:51.741Z,19.90
2019-04-21T22:51:25.384Z,21.57
2019-04-21T22:53:52.415Z,19.20
2019-04-21T22:56:26.811Z,19.60
2019-04-21T22:58:53.149Z,20.97
2019-04-21T23:01:28.547Z,21.93
2019-04-21T23:04:00.420Z,17.67
2019-04-21T23:06:30.851Z,22.83
2019-04-21T23:08:59.215Z,21.03
2019-04-21T23:11:37.478Z,20.40
2019-04-21T23:14:04.983Z,18.83
2019-04-21T23:16:36.265Z,21.50
2019-04-21T23:19:19.778Z,18.77
2019-04-21T23:21:57.770Z,17.93
2019-04-21T23:24:31.779Z,22.27
2019-04-21T23:26:54.229Z,18.03
2019-04-21T23:29:43.870Z,22.73
2019-04-21T23:32:00.802Z,18.07
2019-04-21T23:34:20.836Z,18.50
2019-04-21T23:36:57.659Z,20.10
2019-04-21T23:39:23.358Z,19.57
2019-04-21T23:41:54.998Z,20.57
2019-04-21T23:44:24.166Z,21.97
2019-04-21T23:46:57.554Z,19.93
2019-04-21T23:49:36.574Z,20.70
2019-04-21T23:52:01.327Z,20.17
2019-04-21T23:54:29.228Z,21.00
2019-04-21T23:57:02.834Z,21.23
2019-04-21T23:59:40.171Z,21.87
